sensor_id;sensor_type;location;lat;lon;timestamp;pressure;altitude;pressure_sealevel;temperature;humidity
9277;BME280;4676;42.678;23.244;2024-02-14T00:00:50;93785.97;;;5.43;nan
9277;BME280;4676;42.678;23.244;2024-02-14T00:03:17;93789.22;;;5.46;nan
9277;BME280;4676;42.678;23.244;2024-02-14T00:05:44;93790.06;;;5.47;nan
9277;BME280;4676;42.678;23.244;2024-02-14T00:08:12;93783.38;;;5.46;nan
9277;BME280;4676;42.678;23.244;2024-02-14T00:10:40;93790.91;;;5.46;nan
9277;BME280;4676;42.678;23.244;2024-02-14T00:13:09;93772.91;;;5.30;nan
9277;BME280;4676;42.678;23.244;2024-02-14T00:15:36;93798.44;;;5.46;nan
9277;BME280;4676;42.678;23.244;2024-02-14T00:18:03;93801.09;;;5.41;nan
9277;BME280;4676;42.678;23.244;2024-02-14T00:20:30;93812.00;;;5.40;nan
9277;BME280;4676;42.678;23.244;2024-02-14T00:22:58;93788.06;;;5.26;nan
9277;BME280;4676;42.678;23.244;2024-02-14T00:25:27;93810.97;;;5.47;nan
9277;BME280;4676;42.678;23.244;2024-02-14T00:27:55;93815.16;;;5.48;nan
9277;BME280;4676;42.678;23.244;2024-02-14T00:30:22;93815.00;;;5.53;nan
9277;BME280;4676;42.678;23.244;2024-02-14T00:32:50;93815.00;;;5.53;nan
9277;BME280;4676;42.678;23.244;2024-02-14T00:35:17;93815.97;;;5.49;nan
9277;BME280;4676;42.678;23.244;2024-02-14T00:37:44;93820.28;;;5.44;nan
9277;BME280;4676;42.678;23.244;2024-02-14T00:40:11;93822.81;;;5.42;nan
9277;BME280;4676;42.678;23.244;2024-02-14T00:42:39;93822.72;;;5.47;nan
9277;BME280;4676;42.678;23.244;2024-02-14T00:45:06;93824.41;;;5.46;nan
9277;BME280;4676;42.678;23.244;2024-02-14T00:47:35;93822.06;;;5.39;nan
9277;BME280;4676;42.678;23.244;2024-02-14T00:50:02;93786.34;;;5.28;nan
9277;BME280;4676;42.678;23.244;2024-02-14T00:52:28;93819.44;;;5.45;nan
9277;BME280;4676;42.678;23.244;2024-02-14T00:54:55;93824.41;;;5.46;nan
9277;BME280;4676;42.678;23.244;2024-02-14T00:57:22;93778.34;;;5.14;nan
9277;BME280;4676;42.678;23.244;2024-02-14T00:59:54;93813.75;;;5.37;nan
9277;BME280;4676;42.678;23.244;2024-02-14T01:02:22;93807.94;;;5.35;nan
9277;BME280;4676;42.678;23.244;2024-02-14T01:04:49;93793.34;;;5.17;nan
9277;BME280;4676;42.678;23.244;2024-02-14T01:07:15;93790.59;;;5.26;nan
9277;BME280;4676;42.678;23.244;2024-02-14T01:09:42;93826.00;;;5.49;nan
9277;BME280;4676;42.678;23.244;2024-02-14T01:12:09;93829.31;;;5.51;nan
9277;BME280;4676;42.678;23.244;2024-02-14T01:14:36;93822.44;;;5.58;nan
9277;BME280;4676;42.678;23.244;2024-02-14T01:17:04;93836.13;;;5.47;nan
9277;BME280;4676;42.678;23.244;2024-02-14T01:19:30;93817.06;;;5.39;nan
9277;BME280;4676;42.678;23.244;2024-02-14T01:21:57;93832.59;;;5.53;nan
9277;BME280;4676;42.678;23.244;2024-02-14T01:24:24;93782.28;;;5.24;nan
9277;BME280;4676;42.678;23.244;2024-02-14T01:26:52;93820.03;;;5.54;nan
9277;BME280;4676;42.678;23.244;2024-02-14T01:29:20;93825.06;;;5.53;nan
9277;BME280;4676;42.678;23.244;2024-02-14T01:31:47;93817.78;;;5.44;nan
9277;BME280;4676;42.678;23.244;2024-02-14T01:34:16;93823.56;;;5.46;nan
9277;BME280;4676;42.678;23.244;2024-02-14T01:36:43;93817.69;;;5.47;nan
9277;BME280;4676;42.678;23.244;2024-02-14T01:39:10;93822.72;;;5.47;nan
9277;BME280;4676;42.678;23.244;2024-02-14T01:41:37;93828.66;;;5.44;nan
9277;BME280;4676;42.678;23.244;2024-02-14T01:44:03;93761.72;;;5.08;nan
9277;BME280;4676;42.678;23.244;2024-02-14T01:46:30;93824.47;;;5.43;nan
9277;BME280;4676;42.678;23.244;2024-02-14T01:48:57;93824.59;;;5.39;nan
9277;BME280;4676;42.678;23.244;2024-02-14T01:51:25;93823.75;;;5.38;nan
9277;BME280;4676;42.678;23.244;2024-02-14T01:53:53;93827.81;;;5.44;nan
9277;BME280;4676;42.678;23.244;2024-02-14T01:56:20;93831.03;;;5.49;nan
9277;BME280;4676;42.678;23.244;2024-02-14T01:58:48;93822.56;;;5.53;nan
9277;BME280;4676;42.678;23.244;2024-02-14T02:01:15;93834.34;;;5.51;nan
9277;BME280;4676;42.678;23.244;2024-02-14T02:03:43;93821.13;;;5.44;nan
9277;BME280;4676;42.678;23.244;2024-02-14T02:06:09;93826.09;;;5.46;nan
9277;BME280;4676;42.678;23.244;2024-02-14T02:08:38;93820.88;;;5.53;nan
9277;BME280;4676;42.678;23.244;2024-02-14T02:11:04;93830.94;;;5.53;nan
9277;BME280;4676;42.678;23.244;2024-02-14T02:13:32;93833.53;;;5.49;nan
9277;BME280;4676;42.678;23.244;2024-02-14T02:15:58;93837.63;;;5.53;nan
9277;BME280;4676;42.678;23.244;2024-02-14T02:18:26;93843.56;;;5.50;nan
9277;BME280;4676;42.678;23.244;2024-02-14T02:20:53;93833.53;;;5.49;nan
9277;BME280;4676;42.678;23.244;2024-02-14T02:23:21;93847.09;;;5.43;nan
9277;BME280;4676;42.678;23.244;2024-02-14T02:25:48;93794.28;;;5.13;nan
9277;BME280;4676;42.678;23.244;2024-02-14T02:28:15;93845.44;;;5.42;nan
9277;BME280;4676;42.678;23.244;2024-02-14T02:30:42;93842.06;;;5.43;nan
9277;BME280;4676;42.678;23.244;2024-02-14T02:33:11;93842.06;;;5.45;nan
9277;BME280;4676;42.678;23.244;2024-02-14T02:35:39;93838.06;;;5.36;nan
9277;BME280;4676;42.678;23.244;2024-02-14T02:38:07;93844.81;;;5.34;nan
9277;BME280;4676;42.678;23.244;2024-02-14T02:40:35;93829.25;;;5.20;nan
9277;BME280;4676;42.678;23.244;2024-02-14T02:43:02;93843.25;;;5.30;nan
9277;BME280;4676;42.678;23.244;2024-02-14T02:45:29;93850.81;;;5.29;nan
9277;BME280;4676;42.678;23.244;2024-02-14T02:47:56;93851.63;;;5.29;nan
9277;BME280;4676;42.678;23.244;2024-02-14T02:50:22;93859.16;;;5.31;nan
9277;BME280;4676;42.678;23.244;2024-02-14T02:52:49;93853.97;;;5.37;nan
9277;BME280;4676;42.678;23.244;2024-02-14T02:55:15;93855.66;;;5.35;nan
9277;BME280;4676;42.678;23.244;2024-02-14T02:57:44;93869.81;;;5.39;nan
9277;BME280;4676;42.678;23.244;2024-02-14T03:00:12;93874.75;;;5.43;nan
9277;BME280;4676;42.678;23.244;2024-02-14T03:02:39;93854.66;;;5.42;nan
9277;BME280;4676;42.678;23.244;2024-02-14T03:05:09;93871.97;;;5.54;nan
9277;BME280;4676;42.678;23.244;2024-02-14T03:07:42;93877.19;;;5.46;nan
9277;BME280;4676;42.678;23.244;2024-02-14T03:10:10;93878.00;;;5.47;nan
9277;BME280;4676;42.678;23.244;2024-02-14T03:12:39;93883.06;;;5.45;nan
9277;BME280;4676;42.678;23.244;2024-02-14T03:15:08;93869.06;;;5.35;nan
9277;BME280;4676;42.678;23.244;2024-02-14T03:17:36;93881.56;;;5.38;nan
9277;BME280;4676;42.678;23.244;2024-02-14T03:20:03;93894.94;;;5.39;nan
9277;BME280;4676;42.678;23.244;2024-02-14T03:22:35;93888.38;;;5.33;nan
9277;BME280;4676;42.678;23.244;2024-02-14T03:25:02;93893.25;;;5.39;nan
9277;BME280;4676;42.678;23.244;2024-02-14T03:27:29;93888.97;;;5.44;nan
9277;BME280;4676;42.678;23.244;2024-02-14T03:29:56;93900.81;;;5.39;nan
9277;BME280;4676;42.678;23.244;2024-02-14T03:32:27;93879.38;;;5.25;nan
9277;BME280;4676;42.678;23.244;2024-02-14T03:34:54;93910.94;;;5.35;nan
9277;BME280;4676;42.678;23.244;2024-02-14T03:37:20;93910.69;;;5.47;nan
9277;BME280;4676;42.678;23.244;2024-02-14T03:39:47;93915.72;;;5.45;nan
9277;BME280;4676;42.678;23.244;2024-02-14T03:42:14;93925.84;;;5.42;nan
9277;BME280;4676;42.678;23.244;2024-02-14T03:44:40;93921.66;;;5.43;nan
9277;BME280;4676;42.678;23.244;2024-02-14T03:47:07;93919.25;;;5.38;nan
9277;BME280;4676;42.678;23.244;2024-02-14T03:49:35;93918.47;;;5.35;nan
9277;BME280;4676;42.678;23.244;2024-02-14T03:52:02;93919.25;;;5.38;nan
9277;BME280;4676;42.678;23.244;2024-02-14T03:54:36;93890.47;;;5.16;nan
9277;BME280;4676;42.678;23.244;2024-02-14T03:57:03;93921.88;;;5.34;nan
9277;BME280;4676;42.678;23.244;2024-02-14T03:59:35;93927.72;;;5.34;nan
9277;BME280;4676;42.678;23.244;2024-02-14T04:02:04;93911.91;;;5.31;nan
9277;BME280;4676;42.678;23.244;2024-02-14T04:04:33;93918.44;;;5.38;nan
9277;BME280;4676;42.678;23.244;2024-02-14T04:07:05;93926.84;;;5.35;nan
9277;BME280;4676;42.678;23.244;2024-02-14T04:09:34;93933.50;;;5.38;nan
9277;BME280;4676;42.678;23.244;2024-02-14T04:12:01;93935.16;;;5.39;nan
9277;BME280;4676;42.678;23.244;2024-02-14T04:14:27;93930.84;;;5.44;nan
9277;BME280;4676;42.678;23.244;2024-02-14T04:16:54;93939.09;;;5.49;nan
9277;BME280;4676;42.678;23.244;2024-02-14T04:19:21;93919.38;;;5.32;nan
9277;BME280;4676;42.678;23.244;2024-02-14T04:21:52;93940.16;;;5.39;nan
9277;BME280;4676;42.678;23.244;2024-02-14T04:24:25;93923.94;;;5.17;nan
9277;BME280;4676;42.678;23.244;2024-02-14T04:26:53;93946.25;;;5.30;nan
9277;BME280;4676;42.678;23.244;2024-02-14T04:29:20;93924.03;;;5.14;nan
9277;BME280;4676;42.678;23.244;2024-02-14T04:31:47;93906.63;;;5.04;nan
9277;BME280;4676;42.678;23.244;2024-02-14T04:34:14;93949.59;;;5.31;nan
9277;BME280;4676;42.678;23.244;2024-02-14T04:36:41;93948.88;;;5.24;nan
9277;BME280;4676;42.678;23.244;2024-02-14T04:39:08;93950.47;;;5.28;nan
9277;BME280;4676;42.678;23.244;2024-02-14T04:41:36;93949.81;;;5.20;nan
9277;BME280;4676;42.678;23.244;2024-02-14T04:44:04;93960.78;;;5.16;nan
9277;BME280;4676;42.678;23.244;2024-02-14T04:46:32;93962.53;;;5.13;nan
9277;BME280;4676;42.678;23.244;2024-02-14T04:49:00;93955.09;;;5.08;nan
9277;BME280;4676;42.678;23.244;2024-02-14T04:51:28;93960.88;;;5.13;nan
9277;BME280;4676;42.678;23.244;2024-02-14T04:53:55;93962.41;;;5.19;nan
9277;BME280;4676;42.678;23.244;2024-02-14T04:56:24;93963.41;;;5.12;nan
9277;BME280;4676;42.678;23.244;2024-02-14T04:58:52;93973.53;;;5.07;nan
9277;BME280;4676;42.678;23.244;2024-02-14T05:01:18;93971.91;;;5.04;nan
9277;BME280;4676;42.678;23.244;2024-02-14T05:03:44;93977.09;;;4.97;nan
9277;BME280;4676;42.678;23.244;2024-02-14T05:06:11;93984.56;;;5.00;nan
9277;BME280;4676;42.678;23.244;2024-02-14T05:08:37;93980.22;;;5.08;nan
9277;BME280;4676;42.678;23.244;2024-02-14T05:11:04;93982.78;;;5.05;nan
9277;BME280;4676;42.678;23.244;2024-02-14T05:13:31;93986.91;;;5.08;nan
9277;BME280;4676;42.678;23.244;2024-02-14T05:16:04;93984.53;;;5.01;nan
9277;BME280;4676;42.678;23.244;2024-02-14T05:18:30;93992.22;;;4.95;nan
9277;BME280;4676;42.678;23.244;2024-02-14T05:20:57;93992.94;;;5.00;nan
9277;BME280;4676;42.678;23.244;2024-02-14T05:23:24;94002.03;;;5.06;nan
9277;BME280;4676;42.678;23.244;2024-02-14T05:25:51;94005.41;;;5.05;nan
9277;BME280;4676;42.678;23.244;2024-02-14T05:28:19;94009.72;;;4.98;nan
9277;BME280;4676;42.678;23.244;2024-02-14T05:30:46;94004.63;;;5.03;nan
9277;BME280;4676;42.678;23.244;2024-02-14T05:33:14;94012.16;;;5.03;nan
9277;BME280;4676;42.678;23.244;2024-02-14T05:35:41;94015.56;;;4.99;nan
9277;BME280;4676;42.678;23.244;2024-02-14T05:38:07;94015.56;;;4.99;nan
9277;BME280;4676;42.678;23.244;2024-02-14T05:40:34;94011.53;;;4.92;nan
9277;BME280;4676;42.678;23.244;2024-02-14T05:43:04;94021.53;;;4.93;nan
9277;BME280;4676;42.678;23.244;2024-02-14T05:45:32;94014.22;;;4.83;nan
9277;BME280;4676;42.678;23.244;2024-02-14T05:47:59;94026.50;;;4.96;nan
9277;BME280;4676;42.678;23.244;2024-02-14T05:50:27;94033.16;;;4.97;nan
9277;BME280;4676;42.678;23.244;2024-02-14T05:52:54;94037.00;;;5.15;nan
9277;BME280;4676;42.678;23.244;2024-02-14T05:55:22;94037.91;;;5.11;nan
9277;BME280;4676;42.678;23.244;2024-02-14T05:57:50;94012.56;;;4.82;nan
9277;BME280;4676;42.678;23.244;2024-02-14T06:00:17;94051.50;;;5.01;nan
9277;BME280;4676;42.678;23.244;2024-02-14T06:02:44;94050.69;;;5.00;nan
9277;BME280;4676;42.678;23.244;2024-02-14T06:05:10;94059.13;;;4.96;nan
9277;BME280;4676;42.678;23.244;2024-02-14T06:07:39;94062.59;;;4.91;nan
9277;BME280;4676;42.678;23.244;2024-02-14T06:10:06;94054.38;;;4.83;nan
9277;BME280;4676;42.678;23.244;2024-02-14T06:12:33;94066.88;;;4.86;nan
9277;BME280;4676;42.678;23.244;2024-02-14T06:15:00;94078.56;;;4.87;nan
9277;BME280;4676;42.678;23.244;2024-02-14T06:17:27;94040.41;;;4.70;nan
9277;BME280;4676;42.678;23.244;2024-02-14T06:19:54;94077.75;;;4.86;nan
9277;BME280;4676;42.678;23.244;2024-02-14T06:22:20;94073.44;;;4.93;nan
9277;BME280;4676;42.678;23.244;2024-02-14T06:24:49;94086.84;;;4.92;nan
9277;BME280;4676;42.678;23.244;2024-02-14T06:27:15;94087.59;;;4.97;nan
9277;BME280;4676;42.678;23.244;2024-02-14T06:29:42;94094.22;;;5.01;nan
9277;BME280;4676;42.678;23.244;2024-02-14T06:32:11;94093.50;;;4.94;nan
9277;BME280;4676;42.678;23.244;2024-02-14T06:34:38;94087.66;;;4.94;nan
9277;BME280;4676;42.678;23.244;2024-02-14T06:37:05;94066.00;;;4.87;nan
9277;BME280;4676;42.678;23.244;2024-02-14T06:39:32;94093.34;;;5.02;nan
9277;BME280;4676;42.678;23.244;2024-02-14T06:42:00;94100.03;;;5.03;nan
9277;BME280;4676;42.678;23.244;2024-02-14T06:44:27;94097.50;;;5.04;nan
9277;BME280;4676;42.678;23.244;2024-02-14T06:46:53;94098.25;;;5.10;nan
9277;BME280;4676;42.678;23.244;2024-02-14T06:49:20;94106.50;;;5.15;nan
9277;BME280;4676;42.678;23.244;2024-02-14T06:51:47;94110.75;;;5.13;nan
9277;BME280;4676;42.678;23.244;2024-02-14T06:54:14;94115.06;;;5.04;nan
9277;BME280;4676;42.678;23.244;2024-02-14T06:56:42;94102.75;;;4.92;nan
9277;BME280;4676;42.678;23.244;2024-02-14T06:59:10;94121.88;;;4.99;nan
9277;BME280;4676;42.678;23.244;2024-02-14T07:01:37;94100.38;;;4.85;nan
9277;BME280;4676;42.678;23.244;2024-02-14T07:04:04;94114.22;;;5.04;nan
9277;BME280;4676;42.678;23.244;2024-02-14T07:06:30;94122.66;;;5.03;nan
9277;BME280;4676;42.678;23.244;2024-02-14T07:08:57;94134.50;;;4.95;nan
9277;BME280;4676;42.678;23.244;2024-02-14T07:11:24;94131.03;;;5.00;nan
9277;BME280;4676;42.678;23.244;2024-02-14T07:13:50;94135.28;;;4.97;nan
9277;BME280;4676;42.678;23.244;2024-02-14T07:16:18;94142.00;;;4.96;nan
9277;BME280;4676;42.678;23.244;2024-02-14T07:18:45;94140.31;;;4.97;nan
9277;BME280;4676;42.678;23.244;2024-02-14T07:21:13;94146.06;;;5.03;nan
9277;BME280;4676;42.678;23.244;2024-02-14T07:23:40;94147.69;;;5.06;nan
9277;BME280;4676;42.678;23.244;2024-02-14T07:26:06;94151.19;;;4.99;nan
9277;BME280;4676;42.678;23.244;2024-02-14T07:28:33;94143.72;;;4.93;nan
9277;BME280;4676;42.678;23.244;2024-02-14T07:30:59;94158.72;;;4.97;nan
9277;BME280;4676;42.678;23.244;2024-02-14T07:33:27;94161.25;;;4.97;nan
9277;BME280;4676;42.678;23.244;2024-02-14T07:35:54;94164.59;;;4.96;nan
9277;BME280;4676;42.678;23.244;2024-02-14T07:38:21;94151.25;;;4.93;nan
9277;BME280;4676;42.678;23.244;2024-02-14T07:40:48;94133.72;;;4.91;nan
9277;BME280;4676;42.678;23.244;2024-02-14T07:43:15;94166.13;;;5.07;nan
9277;BME280;4676;42.678;23.244;2024-02-14T07:45:41;94167.94;;;4.98;nan
9277;BME280;4676;42.678;23.244;2024-02-14T07:48:08;94164.63;;;4.95;nan
9277;BME280;4676;42.678;23.244;2024-02-14T07:50:36;94162.09;;;4.96;nan
9277;BME280;4676;42.678;23.244;2024-02-14T07:53:03;94167.16;;;4.93;nan
9277;BME280;4676;42.678;23.244;2024-02-14T07:55:31;94170.44;;;4.97;nan
9277;BME280;4676;42.678;23.244;2024-02-14T07:57:58;94168.81;;;4.96;nan
9277;BME280;4676;42.678;23.244;2024-02-14T08:00:25;94176.41;;;4.91;nan
9277;BME280;4676;42.678;23.244;2024-02-14T08:02:52;94174.16;;;4.76;nan
9277;BME280;4676;42.678;23.244;2024-02-14T08:05:22;94170.75;;;4.79;nan
9277;BME280;4676;42.678;23.244;2024-02-14T08:07:50;94170.69;;;4.83;nan
9277;BME280;4676;42.678;23.244;2024-02-14T08:10:17;94170.63;;;4.88;nan
9277;BME280;4676;42.678;23.244;2024-02-14T08:12:43;94178.94;;;4.90;nan
9277;BME280;4676;42.678;23.244;2024-02-14T08:15:10;94173.13;;;4.88;nan
9277;BME280;4676;42.678;23.244;2024-02-14T08:17:37;94184.75;;;4.93;nan
9277;BME280;4676;42.678;23.244;2024-02-14T08:20:04;94176.38;;;4.94;nan
9277;BME280;4676;42.678;23.244;2024-02-14T08:22:31;94175.47;;;4.98;nan
9277;BME280;4676;42.678;23.244;2024-02-14T08:24:59;94188.97;;;4.91;nan
9277;BME280;4676;42.678;23.244;2024-02-14T08:27:26;94200.63;;;4.94;nan
9277;BME280;4676;42.678;23.244;2024-02-14T08:29:53;94184.03;;;4.87;nan
9277;BME280;4676;42.678;23.244;2024-02-14T08:32:20;94199.88;;;4.90;nan
9277;BME280;4676;42.678;23.244;2024-02-14T08:34:47;94192.38;;;4.87;nan
9277;BME280;4676;42.678;23.244;2024-02-14T08:37:15;94202.44;;;4.87;nan
9277;BME280;4676;42.678;23.244;2024-02-14T08:39:43;94197.41;;;4.89;nan
9277;BME280;4676;42.678;23.244;2024-02-14T08:42:11;94199.06;;;4.88;nan
9277;BME280;4676;42.678;23.244;2024-02-14T08:44:38;94202.06;;;5.10;nan
9277;BME280;4676;42.678;23.244;2024-02-14T08:47:06;94209.59;;;5.10;nan
9277;BME280;4676;42.678;23.244;2024-02-14T08:49:34;94216.41;;;5.02;nan
9277;BME280;4676;42.678;23.244;2024-02-14T08:52:01;94223.22;;;4.95;nan
9277;BME280;4676;42.678;23.244;2024-02-14T08:54:27;94214.19;;;4.85;nan
9277;BME280;4676;42.678;23.244;2024-02-14T08:56:54;94222.50;;;4.87;nan
9277;BME280;4676;42.678;23.244;2024-02-14T08:59:25;94215.81;;;4.88;nan
9277;BME280;4676;42.678;23.244;2024-02-14T09:01:51;94218.41;;;4.83;nan
9277;BME280;4676;42.678;23.244;2024-02-14T09:04:18;94221.56;;;4.93;nan
9277;BME280;4676;42.678;23.244;2024-02-14T09:06:45;94204.38;;;4.70;nan
9277;BME280;4676;42.678;23.244;2024-02-14T09:09:12;94222.50;;;4.89;nan
9277;BME280;4676;42.678;23.244;2024-02-14T09:11:41;94233.28;;;4.94;nan
9277;BME280;4676;42.678;23.244;2024-02-14T09:14:07;94233.34;;;4.89;nan
9277;BME280;4676;42.678;23.244;2024-02-14T09:16:37;94236.78;;;4.85;nan
9277;BME280;4676;42.678;23.244;2024-02-14T09:19:04;94239.38;;;4.79;nan
9277;BME280;4676;42.678;23.244;2024-02-14T09:21:32;94179.84;;;4.35;nan
9277;BME280;4676;42.678;23.244;2024-02-14T09:24:01;94225.25;;;4.72;nan
9277;BME280;4676;42.678;23.244;2024-02-14T09:26:28;94244.31;;;4.85;nan
9277;BME280;4676;42.678;23.244;2024-02-14T09:28:55;94244.28;;;4.87;nan
9277;BME280;4676;42.678;23.244;2024-02-14T09:31:21;94244.34;;;4.82;nan
9277;BME280;4676;42.678;23.244;2024-02-14T09:33:50;94234.34;;;4.79;nan
9277;BME280;4676;42.678;23.244;2024-02-14T09:36:16;94252.53;;;4.93;nan
9277;BME280;4676;42.678;23.244;2024-02-14T09:38:44;94252.59;;;4.92;nan
9277;BME280;4676;42.678;23.244;2024-02-14T09:41:15;94255.03;;;4.95;nan
9277;BME280;4676;42.678;23.244;2024-02-14T09:43:44;94254.31;;;4.88;nan
9277;BME280;4676;42.678;23.244;2024-02-14T09:46:12;94255.94;;;4.89;nan
9277;BME280;4676;42.678;23.244;2024-02-14T09:48:40;94245.97;;;4.86;nan
9277;BME280;4676;42.678;23.244;2024-02-14T09:51:10;94251.91;;;4.81;nan
9277;BME280;4676;42.678;23.244;2024-02-14T09:53:38;94241.09;;;4.77;nan
9277;BME280;4676;42.678;23.244;2024-02-14T09:56:05;94243.53;;;4.82;nan
9277;BME280;4676;42.678;23.244;2024-02-14T09:58:32;94244.31;;;4.85;nan
9277;BME280;4676;42.678;23.244;2024-02-14T10:01:00;94236.75;;;4.88;nan
9277;BME280;4676;42.678;23.244;2024-02-14T10:03:27;94235.19;;;4.80;nan
9277;BME280;4676;42.678;23.244;2024-02-14T10:05:54;94222.06;;;4.63;nan
9277;BME280;4676;42.678;23.244;2024-02-14T10:08:22;94226.94;;;4.72;nan
9277;BME280;4676;42.678;23.244;2024-02-14T10:10:50;94220.28;;;4.71;nan
9277;BME280;4676;42.678;23.244;2024-02-14T10:13:17;94229.50;;;4.70;nan
9277;BME280;4676;42.678;23.244;2024-02-14T10:15:44;94216.06;;;4.73;nan
9277;BME280;4676;42.678;23.244;2024-02-14T10:18:11;94231.94;;;4.75;nan
9277;BME280;4676;42.678;23.244;2024-02-14T10:20:39;94232.66;;;4.81;nan
9277;BME280;4676;42.678;23.244;2024-02-14T10:23:10;94233.53;;;4.79;nan
9277;BME280;4676;42.678;23.244;2024-02-14T10:25:38;94228.47;;;4.82;nan
9277;BME280;4676;42.678;23.244;2024-02-14T10:28:05;94222.63;;;4.81;nan
9277;BME280;4676;42.678;23.244;2024-02-14T10:30:34;94229.16;;;4.91;nan
9277;BME280;4676;42.678;23.244;2024-02-14T10:33:02;94233.19;;;5.00;nan
9277;BME280;4676;42.678;23.244;2024-02-14T10:35:30;94223.03;;;5.06;nan
9277;BME280;4676;42.678;23.244;2024-02-14T10:37:58;94227.19;;;5.09;nan
9277;BME280;4676;42.678;23.244;2024-02-14T10:40:27;94228.72;;;5.17;nan
9277;BME280;4676;42.678;23.244;2024-02-14T10:42:56;94224.50;;;5.18;nan
9277;BME280;4676;42.678;23.244;2024-02-14T10:45:24;94235.25;;;5.26;nan
9277;BME280;4676;42.678;23.244;2024-02-14T10:47:53;94234.47;;;5.22;nan
9277;BME280;4676;42.678;23.244;2024-02-14T10:50:21;94231.13;;;5.23;nan
9277;BME280;4676;42.678;23.244;2024-02-14T10:52:49;94228.09;;;5.04;nan
9277;BME280;4676;42.678;23.244;2024-02-14T10:55:16;94238.13;;;5.06;nan
9277;BME280;4676;42.678;23.244;2024-02-14T10:57:45;94218.09;;;5.03;nan
9277;BME280;4676;42.678;23.244;2024-02-14T11:00:15;94196.22;;;5.08;nan
9277;BME280;4676;42.678;23.244;2024-02-14T11:02:43;94225.22;;;5.24;nan
9277;BME280;4676;42.678;23.244;2024-02-14T11:05:13;94232.69;;;5.29;nan
9277;BME280;4676;42.678;23.244;2024-02-14T11:07:44;94188.56;;;5.14;nan
9277;BME280;4676;42.678;23.244;2024-02-14T11:10:13;94243.97;;;5.52;nan
9277;BME280;4676;42.678;23.244;2024-02-14T11:12:40;94231.59;;;5.43;nan
9277;BME280;4676;42.678;23.244;2024-02-14T11:15:11;94229.09;;;5.42;nan
9277;BME280;4676;42.678;23.244;2024-02-14T11:17:40;94231.53;;;5.46;nan
9277;BME280;4676;42.678;23.244;2024-02-14T11:20:30;94225.84;;;5.37;nan
9277;BME280;4676;42.678;23.244;2024-02-14T11:23:01;94216.81;;;5.27;nan
9277;BME280;4676;42.678;23.244;2024-02-14T11:25:29;94223.31;;;5.37;nan
9277;BME280;4676;42.678;23.244;2024-02-14T11:27:57;94225.91;;;5.34;nan
9277;BME280;4676;42.678;23.244;2024-02-14T11:30:29;94230.16;;;5.29;nan
9277;BME280;4676;42.678;23.244;2024-02-14T11:33:12;94232.69;;;5.29;nan
9277;BME280;4676;42.678;23.244;2024-02-14T11:35:40;94215.22;;;5.21;nan
9277;BME280;4676;42.678;23.244;2024-02-14T11:38:07;94232.41;;;5.44;nan
9277;BME280;4676;42.678;23.244;2024-02-14T11:40:34;94230.75;;;5.43;nan
9277;BME280;4676;42.678;23.244;2024-02-14T11:43:01;94231.59;;;5.43;nan
9277;BME280;4676;42.678;23.244;2024-02-14T11:45:28;94227.41;;;5.42;nan
9277;BME280;4676;42.678;23.244;2024-02-14T11:47:55;94230.63;;;5.49;nan
9277;BME280;4676;42.678;23.244;2024-02-14T11:50:23;94231.44;;;5.51;nan
9277;BME280;4676;42.678;23.244;2024-02-14T11:52:50;94230.50;;;5.57;nan
9277;BME280;4676;42.678;23.244;2024-02-14T11:55:18;94228.19;;;5.46;nan
9277;BME280;4676;42.678;23.244;2024-02-14T11:57:53;94233.25;;;5.43;nan
9277;BME280;4676;42.678;23.244;2024-02-14T12:00:20;94234.16;;;5.40;nan
9277;BME280;4676;42.678;23.244;2024-02-14T12:02:47;94210.13;;;5.26;nan
9277;BME280;4676;42.678;23.244;2024-02-14T12:05:15;94227.41;;;5.42;nan
9277;BME280;4676;42.678;23.244;2024-02-14T12:07:43;94228.28;;;5.40;nan
9277;BME280;4676;42.678;23.244;2024-02-14T12:10:10;94229.09;;;5.42;nan
9277;BME280;4676;42.678;23.244;2024-02-14T12:12:38;94229.91;;;5.42;nan
9277;BME280;4676;42.678;23.244;2024-02-14T12:15:05;94229.00;;;5.46;nan
9277;BME280;4676;42.678;23.244;2024-02-14T12:17:32;94210.63;;;5.44;nan
9277;BME280;4676;42.678;23.244;2024-02-14T12:20:07;94226.16;;;5.65;nan
9277;BME280;4676;42.678;23.244;2024-02-14T12:22:35;94228.59;;;5.68;nan
9277;BME280;4676;42.678;23.244;2024-02-14T12:25:05;94221.91;;;5.67;nan
9277;BME280;4676;42.678;23.244;2024-02-14T12:27:33;94220.22;;;5.69;nan
9277;BME280;4676;42.678;23.244;2024-02-14T12:30:03;94213.56;;;5.66;nan
9277;BME280;4676;42.678;23.244;2024-02-14T12:32:29;94218.25;;;5.83;nan
9277;BME280;4676;42.678;23.244;2024-02-14T12:34:56;94219.84;;;5.88;nan
9277;BME280;4676;42.678;23.244;2024-02-14T12:37:23;94204.00;;;5.83;nan
9277;BME280;4676;42.678;23.244;2024-02-14T12:39:49;94222.19;;;5.97;nan
9277;BME280;4676;42.678;23.244;2024-02-14T12:42:18;94220.44;;;6.01;nan
9277;BME280;4676;42.678;23.244;2024-02-14T12:44:50;94209.50;;;6.02;nan
9277;BME280;4676;42.678;23.244;2024-02-14T12:47:17;94217.94;;;5.99;nan
9277;BME280;4676;42.678;23.244;2024-02-14T12:49:46;94212.13;;;5.97;nan
9277;BME280;4676;42.678;23.244;2024-02-14T12:52:13;94212.81;;;6.04;nan
9277;BME280;4676;42.678;23.244;2024-02-14T12:54:40;94211.03;;;6.09;nan
9277;BME280;4676;42.678;23.244;2024-02-14T12:57:07;94209.38;;;6.08;nan
9277;BME280;4676;42.678;23.244;2024-02-14T12:59:35;94219.41;;;6.10;nan
9277;BME280;4676;42.678;23.244;2024-02-14T13:02:02;94216.88;;;6.11;nan
9277;BME280;4676;42.678;23.244;2024-02-14T13:04:31;94216.09;;;6.08;nan
9277;BME280;4676;42.678;23.244;2024-02-14T13:06:58;94215.13;;;6.15;nan
9277;BME280;4676;42.678;23.244;2024-02-14T13:09:25;94221.81;;;6.16;nan
9277;BME280;4676;42.678;23.244;2024-02-14T13:11:51;94228.38;;;6.21;nan
9277;BME280;4676;42.678;23.244;2024-02-14T13:14:18;94223.50;;;6.15;nan
9277;BME280;4676;42.678;23.244;2024-02-14T13:16:46;94172.88;;;5.90;nan
9277;BME280;4676;42.678;23.244;2024-02-14T13:19:13;94233.44;;;6.20;nan
9277;BME280;4676;42.678;23.244;2024-02-14T13:21:40;94230.91;;;6.20;nan
9277;BME280;4676;42.678;23.244;2024-02-14T13:24:10;94226.47;;;6.32;nan
9277;BME280;4676;42.678;23.244;2024-02-14T13:26:38;94224.31;;;6.16;nan
9277;BME280;4676;42.678;23.244;2024-02-14T13:29:05;94227.47;;;6.24;nan
9277;BME280;4676;42.678;23.244;2024-02-14T13:31:32;94233.34;;;6.26;nan
9277;BME280;4676;42.678;23.244;2024-02-14T13:34:00;94220.09;;;6.16;nan
9277;BME280;4676;42.678;23.244;2024-02-14T13:55:35;94200.72;;;5.80;100.00
9277;BME280;4676;42.678;23.244;2024-02-14T13:58:02;94233.63;;;6.11;97.98
9277;BME280;4676;42.678;23.244;2024-02-14T14:00:29;94226.13;;;6.09;100.00
9277;BME280;4676;42.678;23.244;2024-02-14T14:02:55;94237.53;;;6.24;100.00
9277;BME280;4676;42.678;23.244;2024-02-14T14:05:22;94230.84;;;6.23;95.66